createdAt,value
2023-05-06T00:01:20.528Z,15.90
2023-05-06T00:03:52.066Z,15.80
2023-05-06T00:06:29.642Z,15.80
2023-05-06T00:09:04.632Z,15.80
2023-05-06T00:11:35.785Z,15.80
2023-05-06T00:14:15.694Z,15.80
2023-05-06T00:16:54.871Z,15.80
2023-05-06T00:19:25.686Z,15.80
2023-05-06T00:22:06.013Z,15.70
2023-05-06T00:24:46.850Z,15.70
2023-05-06T00:27:17.615Z,15.70
2023-05-06T00:29:48.880Z,15.70
2023-05-06T00:32:22.837Z,15.70
2023-05-06T00:35:02.610Z,15.70
2023-05-06T00:37:52.837Z,15.70
2023-05-06T00:40:26.817Z,15.70
2023-05-06T00:43:06.907Z,15.70
2023-05-06T00:45:37.847Z,15.70
2023-05-06T00:48:17.804Z,15.60
2023-05-06T00:50:51.664Z,15.60
2023-05-06T00:53:30.494Z,15.50
2023-05-06T00:56:04.517Z,15.50
2023-05-06T00:58:44.809Z,15.40
2023-05-06T01:01:18.475Z,15.40
2023-05-06T01:03:54.591Z,15.40
2023-05-06T01:06:34.385Z,15.40
2023-05-06T01:09:22.158Z,15.40
2023-05-06T01:11:57.924Z,15.40
2023-05-06T01:14:42.880Z,15.40
2023-05-06T01:17:24.204Z,15.40
2023-05-06T01:19:59.916Z,15.30
2023-05-06T01:22:32.774Z,15.30
2023-05-06T01:25:25.908Z,15.30
2023-05-06T01:28:12.978Z,15.30
2023-05-06T01:31:01.383Z,15.20
2023-05-06T01:33:48.671Z,15.20
2023-05-06T01:36:29.175Z,15.20
2023-05-06T01:39:12.341Z,15.30
2023-05-06T01:41:54.635Z,15.30
2023-05-06T01:44:32.686Z,15.30
2023-05-06T01:47:13.342Z,15.30
2023-05-06T01:49:55.860Z,15.30
2023-05-06T01:52:31.543Z,15.30
2023-05-06T01:55:10.010Z,15.30
2023-05-06T01:57:46.543Z,15.30
2023-05-06T02:00:17.468Z,15.30
2023-05-06T02:02:47.787Z,15.30
2023-05-06T02:05:21.972Z,15.30
2023-05-06T02:08:09.531Z,15.30
2023-05-06T02:10:43.715Z,15.30
2023-05-06T02:13:21.757Z,15.30
2023-05-06T02:15:57.763Z,15.30
2023-05-06T02:18:30.927Z,15.30
2023-05-06T02:21:03.367Z,15.30
2023-05-06T02:23:43.763Z,15.20
2023-05-06T02:26:20.182Z,15.20
2023-05-06T02:29:07.685Z,15.10
2023-05-06T02:31:42.903Z,15.10
2023-05-06T02:34:16.860Z,15.10
2023-05-06T02:36:48.801Z,15.10
2023-05-06T02:39:24.375Z,15.10
2023-05-06T02:41:58.165Z,15.10
2023-05-06T02:44:35.457Z,15.10
2023-05-06T02:47:12.962Z,15.10
2023-05-06T02:49:51.099Z,15.10
2023-05-06T02:52:28.978Z,15.10
2023-05-06T02:55:06.185Z,15.10
2023-05-06T02:57:38.112Z,15.00
2023-05-06T03:00:14.073Z,15.00
2023-05-06T03:02:47.698Z,15.00
2023-05-06T03:05:17.915Z,15.00
2023-05-06T03:07:48.783Z,14.90
2023-05-06T03:10:22.572Z,14.90
2023-05-06T03:12:58.775Z,14.80
2023-05-06T03:15:37.019Z,14.80
2023-05-06T03:18:15.280Z,14.70
2023-05-06T03:20:48.881Z,14.60
2023-05-06T03:23:21.993Z,14.70
2023-05-06T03:25:57.432Z,14.70
2023-05-06T03:28:42.906Z,14.70
2023-05-06T03:31:28.796Z,14.60
2023-05-06T03:34:10.712Z,14.50
2023-05-06T03:36:46.622Z,14.50
2023-05-06T03:39:29.269Z,14.50
2023-05-06T03:42:07.128Z,14.50
2023-05-06T03:44:45.629Z,14.40
2023-05-06T03:47:21.350Z,14.40
2023-05-06T03:49:56.656Z,14.40
2023-05-06T03:52:28.363Z,14.30
2023-05-06T03:55:03.701Z,14.40
2023-05-06T03:57:35.892Z,14.40
2023-05-06T04:00:17.819Z,14.40
2023-05-06T04:02:59.790Z,14.40
2023-05-06T04:05:43.387Z,14.40
2023-05-06T04:08:23.913Z,14.40
2023-05-06T04:10:52.641Z,14.30
2023-05-06T04:13:35.895Z,14.30
2023-05-06T04:16:20.295Z,14.30
2023-05-06T04:19:06.712Z,14.30
2023-05-06T04:21:38.569Z,14.20
2023-05-06T04:24:16.145Z,14.30
2023-05-06T04:26:47.419Z,14.30
2023-05-06T04:29:17.234Z,14.20
2023-05-06T04:32:07.382Z,14.20
2023-05-06T04:34:55.390Z,14.20
2023-05-06T04:37:31.450Z,14.10
2023-05-06T04:40:32.611Z,14.10
2023-05-06T04:43:09.062Z,14.00
2023-05-06T04:45:38.336Z,14.00
2023-05-06T04:48:11.712Z,14.00
2023-05-06T04:50:48.964Z,14.10
2023-05-06T04:53:28.801Z,14.20
2023-05-06T04:56:04.627Z,14.30
2023-05-06T04:58:40.422Z,14.40
2023-05-06T05:01:14.311Z,14.50
2023-05-06T05:03:46.260Z,14.70
2023-05-06T05:06:27.758Z,14.80
2023-05-06T05:09:02.253Z,15.10
2023-05-06T05:11:43.553Z,15.60
2023-05-06T05:14:17.598Z,16.20
2023-05-06T05:16:48.712Z,16.90
2023-05-06T05:19:24.321Z,17.70
2023-05-06T05:22:02.831Z,18.30
2023-05-06T05:24:45.546Z,18.90
2023-05-06T05:27:23.558Z,19.80
2023-05-06T05:29:55.904Z,20.70
2023-05-06T05:32:28.877Z,21.40
2023-05-06T05:35:04.849Z,22.20
2023-05-06T05:37:42.821Z,23.00
2023-05-06T05:40:14.313Z,23.60
2023-05-06T05:42:58.348Z,24.20
2023-05-06T05:45:41.632Z,24.80
2023-05-06T05:48:22.969Z,25.20
2023-05-06T05:51:00.640Z,25.80
2023-05-06T05:53:32.851Z,26.30
2023-05-06T05:56:11.937Z,26.70
2023-05-06T05:58:53.743Z,27.10
2023-05-06T06:01:27.819Z,27.60
2023-05-06T06:04:02.312Z,27.90
2023-05-06T06:06:36.808Z,27.10
2023-05-06T06:09:18.734Z,25.60
2023-05-06T06:11:52.639Z,24.00
2023-05-06T06:14:34.984Z,22.60
2023-05-06T06:17:09.549Z,21.50
2023-05-06T06:19:42.820Z,20.60
2023-05-06T06:22:20.141Z,19.90
2023-05-06T06:24:57.470Z,19.40
2023-05-06T06:27:36.538Z,19.00
2023-05-06T06:30:12.119Z,18.70
2023-05-06T06:33:08.153Z,18.40
2023-05-06T06:35:40.455Z,18.20
2023-05-06T06:38:16.984Z,18.00
2023-05-06T06:40:56.180Z,17.90
2023-05-06T06:43:35.473Z,17.70
2023-05-06T06:46:12.731Z,17.60
2023-05-06T06:48:47.449Z,17.50
2023-05-06T06:51:23.469Z,17.50
2023-05-06T06:53:55.134Z,17.50
2023-05-06T06:56:31.098Z,17.40
2023-05-06T06:59:07.897Z,17.40
2023-05-06T07:01:42.200Z,17.40
2023-05-06T07:04:17.666Z,17.40
2023-05-06T07:06:47.006Z,17.40
2023-05-06T07:09:16.342Z,17.40
2023-05-06T07:11:55.536Z,17.30
2023-05-06T07:14:34.345Z,17.40
2023-05-06T07:17:07.856Z,17.40
2023-05-06T07:19:41.656Z,17.40
2023-05-06T07:22:13.739Z,17.40
2023-05-06T07:24:45.901Z,17.50
2023-05-06T07:27:22.981Z,17.50
2023-05-06T07:29:58.107Z,17.50
2023-05-06T07:32:35.019Z,17.50
2023-05-06T07:35:10.683Z,17.50
2023-05-06T07:37:53.188Z,17.60
2023-05-06T07:40:25.409Z,17.50
2023-05-06T07:43:00.163Z,17.50
2023-05-06T07:45:36.703Z,17.50
2023-05-06T07:48:08.401Z,17.50
2023-05-06T07:50:43.480Z,17.60
2023-05-06T07:53:14.197Z,17.60
2023-05-06T07:55:45.736Z,17.60
2023-05-06T07:58:24.845Z,17.70
2023-05-06T08:01:03.940Z,17.70
2023-05-06T08:03:40.061Z,17.70
2023-05-06T08:06:11.295Z,17.80
2023-05-06T08:08:41.646Z,17.80
2023-05-06T08:11:13.144Z,17.90
2023-05-06T08:13:48.999Z,17.90
2023-05-06T08:16:22.581Z,17.90
2023-05-06T08:18:55.202Z,17.90
2023-05-06T08:21:32.268Z,17.90
2023-05-06T08:24:02.920Z,17.80
2023-05-06T08:26:38.705Z,17.80
2023-05-06T08:29:16.508Z,17.90
2023-05-06T08:31:46.167Z,17.90
2023-05-06T08:34:18.712Z,18.00
2023-05-06T08:36:49.507Z,18.00
2023-05-06T08:39:28.687Z,18.10
2023-05-06T08:42:06.261Z,18.10
2023-05-06T08:44:43.844Z,18.20
2023-05-06T08:47:19.832Z,18.20
2023-05-06T08:49:59.439Z,18.20
2023-05-06T08:52:35.141Z,18.30
2023-05-06T08:55:25.445Z,18.30
2023-05-06T08:58:03.597Z,18.40
2023-05-06T09:00:45.152Z,18.50
2023-05-06T09:03:22.100Z,18.60
2023-05-06T09:05:56.836Z,18.60
2023-05-06T09:08:36.563Z,18.70
2023-05-06T09:14:16.078Z,18.70
2023-05-06T09:16:50.346Z,18.70
2023-05-06T09:19:29.515Z,18.80
2023-05-06T09:22:02.640Z,18.80
2023-05-06T09:24:32.938Z,18.80
2023-05-06T09:27:14.626Z,18.70
2023-05-06T09:30:01.569Z,18.80
2023-05-06T09:32:41.158Z,18.90
2023-05-06T09:35:15.402Z,18.90
2023-05-06T09:37:48.543Z,18.90
2023-05-06T09:40:19.562Z,18.90
2023-05-06T09:42:54.247Z,18.90
2023-05-06T09:45:39.428Z,18.90
2023-05-06T09:48:31.588Z,18.90
2023-05-06T09:51:01.492Z,18.90
2023-05-06T09:53:40.101Z,18.90
2023-05-06T09:56:20.087Z,18.90
2023-05-06T09:59:00.991Z,18.90
2023-05-06T10:01:39.199Z,18.90
2023-05-06T10:04:18.563Z,19.00
2023-05-06T10:06:55.021Z,19.00
2023-05-06T10:09:29.763Z,19.10
2023-05-06T10:12:06.027Z,19.20
2023-05-06T10:14:41.424Z,19.20
2023-05-06T10:17:14.815Z,19.30
2023-05-06T10:19:47.330Z,19.30
2023-05-06T10:22:38.856Z,19.30
2023-05-06T10:25:26.672Z,19.40
2023-05-06T10:28:00.738Z,19.30
2023-05-06T10:30:43.345Z,19.30
2023-05-06T10:33:17.038Z,19.30
2023-05-06T10:35:55.959Z,19.30
2023-05-06T10:38:39.141Z,19.40
2023-05-06T10:41:12.452Z,19.40
2023-05-06T10:43:52.355Z,19.30
2023-05-06T10:46:21.401Z,19.40
2023-05-06T10:49:23.413Z,19.40
2023-05-06T10:52:28.170Z,19.40
2023-05-06T10:55:08.945Z,19.30
2023-05-06T10:57:48.055Z,19.30
2023-05-06T11:00:22.764Z,19.40
2023-05-06T11:03:02.775Z,19.30
2023-05-06T11:05:33.745Z,19.40
2023-05-06T11:08:18.890Z,19.40
2023-05-06T11:10:52.491Z,19.40
2023-05-06T11:13:35.871Z,19.40
2023-05-06T11:16:07.709Z,19.40
2023-05-06T11:18:49.655Z,19.40
2023-05-06T11:21:42.720Z,19.40
2023-05-06T11:24:28.108Z,19.40
2023-05-06T11:27:03.845Z,19.40
2023-05-06T11:29:37.190Z,19.50
2023-05-06T11:32:18.778Z,19.50
2023-05-06T11:34:57.771Z,19.60
2023-05-06T11:37:34.799Z,19.60
2023-05-06T11:40:20.017Z,19.60
2023-05-06T11:42:54.202Z,19.60
2023-05-06T11:45:31.479Z,19.60
2023-05-06T11:48:06.603Z,19.60
2023-05-06T11:50:39.008Z,19.60
2023-05-06T11:53:10.446Z,19.60
2023-05-06T11:55:48.285Z,19.60
2023-05-06T11:58:25.252Z,19.60
2023-05-06T12:00:55.925Z,19.60
2023-05-06T12:03:30.785Z,19.60
2023-05-06T12:06:09.748Z,19.60
2023-05-06T12:08:41.414Z,19.60
2023-05-06T12:11:18.885Z,19.70
2023-05-06T12:13:49.057Z,19.80
2023-05-06T12:16:35.896Z,19.80
2023-05-06T12:19:22.114Z,19.90
2023-05-06T12:21:51.059Z,20.00
2023-05-06T12:24:35.934Z,19.90
2023-05-06T12:27:34.317Z,20.00
2023-05-06T12:30:04.975Z,20.00
2023-05-06T12:32:42.054Z,20.10
2023-05-06T12:35:30.629Z,20.10
2023-05-06T12:38:13.426Z,20.20
2023-05-06T12:40:44.705Z,20.20
2023-05-06T12:43:36.685Z,20.20
2023-05-06T12:46:07.434Z,20.30
2023-05-06T12:48:41.690Z,20.30
2023-05-06T12:51:25.079Z,20.40
2023-05-06T12:54:07.187Z,20.40
2023-05-06T12:56:36.873Z,20.50
2023-05-06T12:59:24.348Z,20.60
2023-05-06T13:01:57.465Z,20.60
2023-05-06T13:04:28.230Z,20.80
2023-05-06T13:07:01.860Z,20.80
2023-05-06T13:09:39.500Z,20.90
2023-05-06T13:12:15.176Z,20.90
2023-05-06T13:15:03.395Z,20.90
2023-05-06T13:17:37.234Z,20.90
2023-05-06T13:20:11.990Z,20.90
2023-05-06T13:22:54.738Z,20.90
2023-05-06T13:25:29.477Z,21.00
2023-05-06T13:28:04.123Z,20.90
2023-05-06T13:30:43.416Z,21.00
2023-05-06T13:33:23.702Z,21.00
2023-05-06T13:38:36.131Z,21.10
2023-05-06T13:41:12.333Z,21.10
2023-05-06T13:43:53.539Z,21.10
2023-05-06T13:46:46.456Z,21.10
2023-05-06T13:49:20.533Z,21.10
2023-05-06T13:51:50.443Z,21.00
2023-05-06T13:54:22.365Z,21.00
2023-05-06T13:56:55.077Z,21.00
2023-05-06T13:59:30.538Z,21.00
2023-05-06T14:02:13.562Z,21.00
2023-05-06T14:04:47.486Z,21.00
2023-05-06T14:07:27.310Z,21.00
2023-05-06T14:10:02.183Z,21.10
2023-05-06T14:12:37.143Z,21.10
2023-05-06T14:15:13.036Z,21.10
2023-05-06T14:17:51.903Z,21.10
2023-05-06T14:20:22.974Z,21.20
2023-05-06T14:22:56.761Z,21.10
2023-05-06T14:25:30.505Z,21.10
2023-05-06T14:28:10.984Z,21.20
2023-05-06T14:30:50.663Z,21.20
2023-05-06T14:33:38.066Z,21.20
2023-05-06T14:36:12.642Z,21.30
2023-05-06T14:38:50.575Z,21.40
2023-05-06T14:41:22.320Z,21.40
2023-05-06T14:43:59.481Z,21.40
2023-05-06T14:46:53.593Z,21.40
2023-05-06T14:49:34.154Z,21.40
2023-05-06T14:52:04.833Z,21.30
2023-05-06T14:54:46.242Z,21.20
2023-05-06T14:57:27.947Z,21.20
2023-05-06T14:59:58.551Z,21.20
2023-05-06T15:02:30.390Z,21.20
2023-05-06T15:05:07.101Z,21.10
2023-05-06T15:07:46.986Z,21.20
2023-05-06T15:10:21.554Z,21.10
2023-05-06T15:12:50.335Z,21.10
2023-05-06T15:15:23.153Z,21.10
2023-05-06T15:17:55.751Z,21.10
2023-05-06T15:20:27.740Z,21.20
2023-05-06T15:23:02.832Z,21.20
2023-05-06T15:25:44.022Z,21.10
2023-05-06T15:28:19.389Z,21.10
2023-05-06T15:30:50.193Z,21.10
2023-05-06T15:33:25.019Z,21.00
2023-05-06T15:36:00.166Z,21.00
2023-05-06T15:38:54.184Z,21.00
2023-05-06T15:41:29.641Z,21.00
2023-05-06T15:44:12.087Z,21.00
2023-05-06T15:46:43.334Z,21.00
2023-05-06T15:49:42.601Z,21.10
2023-05-06T15:52:07.890Z,21.10
2023-05-06T15:54:50.009Z,21.20
2023-05-06T15:57:35.837Z,21.10
2023-05-06T16:00:23.466Z,21.10
2023-05-06T16:02:57.483Z,21.20
2023-05-06T16:05:31.642Z,21.20
2023-05-06T16:08:08.642Z,21.20
2023-05-06T16:10:42.502Z,21.20
2023-05-06T16:13:13.233Z,21.30
2023-05-06T16:15:48.550Z,21.30
2023-05-06T16:18:19.251Z,21.40
2023-05-06T16:20:59.824Z,21.50
2023-05-06T16:23:34.400Z,21.60
2023-05-06T16:26:06.696Z,21.60
2023-05-06T16:28:38.108Z,21.70
2023-05-06T16:31:16.798Z,21.70
2023-05-06T16:33:51.635Z,21.80
2023-05-06T16:36:30.296Z,21.80
2023-05-06T16:39:20.097Z,21.80
2023-05-06T16:41:59.777Z,21.80
2023-05-06T16:44:38.382Z,21.80
2023-05-06T16:47:13.976Z,21.80
2023-05-06T16:49:45.174Z,21.80
2023-05-06T16:52:21.186Z,21.80
2023-05-06T16:55:01.954Z,21.70
2023-05-06T16:57:34.721Z,21.60
2023-05-06T17:02:57.328Z,21.50
2023-05-06T17:05:25.826Z,21.40
2023-05-06T17:07:59.523Z,21.30
2023-05-06T17:10:35.076Z,21.30
2023-05-06T17:13:05.157Z,21.30
2023-05-06T17:15:39.878Z,21.20
2023-05-06T17:18:16.850Z,21.20
2023-05-06T17:20:56.634Z,21.10
2023-05-06T17:23:29.194Z,21.10
2023-05-06T17:26:08.433Z,21.00
2023-05-06T17:28:43.586Z,21.00
2023-05-06T17:31:20.430Z,21.00
2023-05-06T17:33:48.768Z,21.00
2023-05-06T17:36:28.273Z,20.90
2023-05-06T17:39:12.585Z,20.90
2023-05-06T17:41:44.689Z,20.90
2023-05-06T17:44:19.615Z,20.80
2023-05-06T17:46:53.597Z,20.80
2023-05-06T17:49:33.863Z,20.80
2023-05-06T17:52:06.371Z,20.70
2023-05-06T17:54:37.709Z,20.70
2023-05-06T17:57:13.182Z,20.70
2023-05-06T18:03:06.509Z,20.60
2023-05-06T18:05:43.411Z,20.60
2023-05-06T18:08:14.652Z,20.50
2023-05-06T18:10:55.037Z,20.50
2023-05-06T18:13:32.249Z,20.50
2023-05-06T18:16:00.325Z,20.40
2023-05-06T18:18:32.336Z,20.40
2023-05-06T18:21:06.695Z,20.40
2023-05-06T18:23:40.837Z,20.40
2023-05-06T18:26:34.948Z,20.30
2023-05-06T18:29:13.020Z,20.30
2023-05-06T18:31:47.141Z,20.20
2023-05-06T18:34:25.654Z,20.20
2023-05-06T18:37:01.046Z,20.20
2023-05-06T18:39:41.639Z,20.10
2023-05-06T18:42:19.600Z,20.10
2023-05-06T18:45:14.254Z,20.00
2023-05-06T18:47:58.215Z,20.00
2023-05-06T18:50:32.007Z,20.00
2023-05-06T18:53:11.712Z,19.90
2023-05-06T18:55:46.629Z,19.90
2023-05-06T18:58:20.671Z,19.90
2023-05-06T19:00:58.494Z,19.80
2023-05-06T19:03:29.456Z,19.80
2023-05-06T19:06:01.117Z,19.80
2023-05-06T19:08:31.639Z,19.70
2023-05-06T19:11:08.328Z,19.70
2023-05-06T19:13:46.089Z,19.70
2023-05-06T19:16:23.785Z,19.60
2023-05-06T19:18:53.793Z,19.60
2023-05-06T19:21:27.566Z,19.50
2023-05-06T19:24:02.353Z,19.50
2023-05-06T19:26:42.817Z,19.40
2023-05-06T19:29:25.154Z,19.40
2023-05-06T19:32:04.977Z,19.30
2023-05-06T19:34:40.818Z,19.30
2023-05-06T19:37:16.282Z,19.20
2023-05-06T19:39:50.921Z,19.20
2023-05-06T19:42:25.988Z,19.10
2023-05-06T19:44:56.312Z,19.10
2023-05-06T19:47:32.900Z,19.00
2023-05-06T19:50:12.459Z,18.90
2023-05-06T19:52:45.019Z,18.90
2023-05-06T19:55:13.546Z,18.80
2023-05-06T19:57:45.625Z,18.80
2023-05-06T20:00:18.489Z,18.70
2023-05-06T20:02:59.528Z,18.70
2023-05-06T20:05:32.089Z,18.60
2023-05-06T20:08:06.751Z,18.50
2023-05-06T20:10:41.244Z,18.50
2023-05-06T20:13:20.602Z,18.30
2023-05-06T20:15:52.990Z,18.20
2023-05-06T20:18:40.009Z,18.10
2023-05-06T20:21:09.528Z,18.00
2023-05-06T20:23:42.343Z,17.90
2023-05-06T20:26:12.931Z,17.90
2023-05-06T20:28:44.047Z,17.90
2023-05-06T20:31:24.897Z,17.90
2023-05-06T20:34:00.742Z,17.90
2023-05-06T20:36:37.779Z,17.80
2023-05-06T20:39:07.148Z,17.70
2023-05-06T20:41:46.788Z,17.60
2023-05-06T20:44:17.833Z,17.60
2023-05-06T20:46:54.620Z,17.50
2023-05-06T20:49:33.681Z,17.50
2023-05-06T20:52:09.882Z,17.50
2023-05-06T20:54:44.702Z,17.50
2023-05-06T20:57:17.694Z,17.50
2023-05-06T20:59:51.968Z,17.50
2023-05-06T21:02:22.534Z,17.50
2023-05-06T21:04:53.170Z,17.50
2023-05-06T21:07:30.579Z,17.50
2023-05-06T21:10:11.288Z,17.50
2023-05-06T21:12:45.449Z,17.50
2023-05-06T21:15:30.662Z,17.50
2023-05-06T21:18:07.642Z,17.50
2023-05-06T21:20:58.888Z,17.50
2023-05-06T21:23:38.576Z,17.40
2023-05-06T21:26:18.610Z,17.40
2023-05-06T21:28:54.886Z,17.30
2023-05-06T21:31:29.483Z,17.30
2023-05-06T21:34:10.668Z,17.30
2023-05-06T21:36:56.946Z,17.30
2023-05-06T21:39:26.878Z,17.20
2023-05-06T21:42:00.616Z,17.20
2023-05-06T21:44:34.895Z,17.20
2023-05-06T21:47:14.293Z,17.20
2023-05-06T21:49:43.336Z,17.20
2023-05-06T21:52:19.474Z,17.10
2023-05-06T21:54:58.768Z,17.10
2023-05-06T21:57:39.124Z,17.10
2023-05-06T22:00:25.131Z,17.00
2023-05-06T22:03:03.181Z,17.00
2023-05-06T22:05:36.772Z,17.00
2023-05-06T22:08:12.248Z,17.00
2023-05-06T22:10:43.277Z,16.90
2023-05-06T22:13:26.930Z,16.90
2023-05-06T22:16:01.907Z,16.80
2023-05-06T22:18:45.538Z,16.80
2023-05-06T22:21:17.379Z,16.70
2023-05-06T22:23:49.491Z,16.70
2023-05-06T22:26:24.098Z,16.60
2023-05-06T22:28:58.328Z,16.60
2023-05-06T22:31:31.664Z,16.60
2023-05-06T22:34:07.884Z,16.60
2023-05-06T22:36:44.857Z,16.60
2023-05-06T22:39:25.960Z,16.60
2023-05-06T22:42:00.309Z,16.60
2023-05-06T22:44:36.778Z,16.60
2023-05-06T22:47:09.110Z,16.60
2023-05-06T22:49:40.433Z,16.60
2023-05-06T22:52:09.029Z,16.60
2023-05-06T22:54:44.243Z,16.60
2023-05-06T22:57:21.067Z,16.60
2023-05-06T23:00:01.284Z,16.60
2023-05-06T23:02:36.532Z,16.60
2023-05-06T23:05:07.033Z,16.60
2023-05-06T23:07:43.075Z,16.60
2023-05-06T23:10:29.842Z,16.60
2023-05-06T23:13:03.734Z,16.60
2023-05-06T23:15:37.035Z,16.70
2023-05-06T23:18:06.981Z,16.70
2023-05-06T23:20:39.226Z,16.70
2023-05-06T23:23:15.972Z,16.70
2023-05-06T23:25:51.594Z,16.70
2023-05-06T23:28:34.889Z,16.80
2023-05-06T23:31:11.778Z,16.80
2023-05-06T23:33:57.789Z,16.80
2023-05-06T23:36:31.649Z,16.80
2023-05-06T23:39:13.922Z,16.80
2023-05-06T23:41:48.181Z,16.80
2023-05-06T23:44:27.107Z,16.80
2023-05-06T23:47:04.415Z,16.70
2023-05-06T23:49:43.595Z,16.70
2023-05-06T23:52:14.183Z,16.70
2023-05-06T23:54:45.278Z,16.70
2023-05-06T23:57:32.093Z,16.70
